sensor_id;sensor_type;location;lat;lon;timestamp;pressure;altitude;pressure_sealevel;temperature;humidity
56582;BME280;42463;52.214;21.238;2023-04-07T00:00:25;100227.00;;;6.64;74.06
56582;BME280;42463;52.214;21.238;2023-04-07T00:02:49;100224.52;;;6.64;74.13
56582;BME280;42463;52.214;21.238;2023-04-07T00:04:53;100224.77;;;6.64;74.43
56582;BME280;42463;52.214;21.238;2023-04-07T00:06:59;100223.65;;;6.62;74.06
56582;BME280;42463;52.214;21.238;2023-04-07T00:09:03;100226.48;;;6.56;74.45
56582;BME280;42463;52.214;21.238;2023-04-07T00:11:08;100228.31;;;6.50;74.38
56582;BME280;42463;52.214;21.238;2023-04-07T00:13:12;100225.30;;;6.50;74.76
56582;BME280;42463;52.214;21.238;2023-04-07T00:15:16;100222.20;;;6.49;74.58
56582;BME280;42463;52.214;21.238;2023-04-07T00:17:21;100223.67;;;6.50;74.70
56582;BME280;42463;52.214;21.238;2023-04-07T00:19:25;100221.73;;;6.52;75.07
56582;BME280;42463;52.214;21.238;2023-04-07T00:21:29;100219.33;;;6.50;74.94
56582;BME280;42463;52.214;21.238;2023-04-07T00:23:34;100217.33;;;6.50;75.01
56582;BME280;42463;52.214;21.238;2023-04-07T00:25:38;100213.20;;;6.52;75.09
56582;BME280;42463;52.214;21.238;2023-04-07T00:27:42;100217.11;;;6.53;75.14
56582;BME280;42463;52.214;21.238;2023-04-07T00:29:46;100212.27;;;6.55;75.19
56582;BME280;42463;52.214;21.238;2023-04-07T00:31:50;100207.38;;;6.55;74.95
56582;BME280;42463;52.214;21.238;2023-04-07T00:33:54;100205.88;;;6.56;75.08
56582;BME280;42463;52.214;21.238;2023-04-07T00:35:59;100206.35;;;6.62;75.65
56582;BME280;42463;52.214;21.238;2023-04-07T00:38:04;100208.73;;;6.69;75.41
56582;BME280;42463;52.214;21.238;2023-04-07T00:40:09;100203.80;;;6.73;75.40
56582;BME280;42463;52.214;21.238;2023-04-07T00:42:13;100203.44;;;6.77;75.17
56582;BME280;42463;52.214;21.238;2023-04-07T00:44:17;100204.83;;;6.83;75.25
56582;BME280;42463;52.214;21.238;2023-04-07T00:46:21;100203.30;;;6.82;75.02
56582;BME280;42463;52.214;21.238;2023-04-07T00:48:26;100203.91;;;6.76;75.01
56582;BME280;42463;52.214;21.238;2023-04-07T00:50:30;100206.23;;;6.78;75.13
56582;BME280;42463;52.214;21.238;2023-04-07T00:52:34;100202.06;;;6.77;75.34
56582;BME280;42463;52.214;21.238;2023-04-07T00:54:39;100203.12;;;6.81;75.27
56582;BME280;42463;52.214;21.238;2023-04-07T00:56:44;100201.88;;;6.81;75.14
56582;BME280;42463;52.214;21.238;2023-04-07T00:58:48;100202.37;;;6.79;74.93
56582;BME280;42463;52.214;21.238;2023-04-07T01:03:45;100196.34;;;6.84;75.53
56582;BME280;42463;52.214;21.238;2023-04-07T01:05:53;100203.66;;;6.88;75.61
56582;BME280;42463;52.214;21.238;2023-04-07T01:07:59;100204.21;;;6.91;75.34
56582;BME280;42463;52.214;21.238;2023-04-07T01:10:08;100195.96;;;6.91;75.02
56582;BME280;42463;52.214;21.238;2023-04-07T01:12:22;100203.53;;;6.90;74.95
56582;BME280;42463;52.214;21.238;2023-04-07T01:14:32;100203.70;;;6.90;75.03
56582;BME280;42463;52.214;21.238;2023-04-07T01:16:50;100201.30;;;6.91;75.40
56582;BME280;42463;52.214;21.238;2023-04-07T01:18:57;100201.12;;;6.95;75.52
56582;BME280;42463;52.214;21.238;2023-04-07T01:21:05;100202.29;;;6.96;75.22
56582;BME280;42463;52.214;21.238;2023-04-07T01:23:10;100197.31;;;6.96;75.29
56582;BME280;42463;52.214;21.238;2023-04-07T01:25:30;100199.64;;;7.01;75.04
56582;BME280;42463;52.214;21.238;2023-04-07T01:27:41;100200.15;;;7.02;75.22
56582;BME280;42463;52.214;21.238;2023-04-07T01:29:46;100196.54;;;7.02;75.25
56582;BME280;42463;52.214;21.238;2023-04-07T01:31:52;100195.98;;;7.02;75.33
56582;BME280;42463;52.214;21.238;2023-04-07T01:33:58;100193.99;;;7.05;75.30
56582;BME280;42463;52.214;21.238;2023-04-07T01:36:03;100197.47;;;7.03;75.28
56582;BME280;42463;52.214;21.238;2023-04-07T01:38:08;100192.57;;;7.03;75.38
56582;BME280;42463;52.214;21.238;2023-04-07T01:40:13;100195.70;;;7.03;75.24
56582;BME280;42463;52.214;21.238;2023-04-07T01:42:18;100191.56;;;7.04;75.48
56582;BME280;42463;52.214;21.238;2023-04-07T01:44:23;100191.29;;;7.07;75.34
56582;BME280;42463;52.214;21.238;2023-04-07T01:46:27;100191.70;;;7.06;75.26
56582;BME280;42463;52.214;21.238;2023-04-07T01:48:31;100194.63;;;7.09;75.52
56582;BME280;42463;52.214;21.238;2023-04-07T01:50:37;100192.16;;;7.10;75.48
56582;BME280;42463;52.214;21.238;2023-04-07T01:52:41;100187.73;;;7.14;75.60
56582;BME280;42463;52.214;21.238;2023-04-07T01:54:46;100193.04;;;7.20;75.84
56582;BME280;42463;52.214;21.238;2023-04-07T01:56:50;100186.36;;;7.22;75.23
56582;BME280;42463;52.214;21.238;2023-04-07T01:58:55;100185.29;;;7.22;75.29
56582;BME280;42463;52.214;21.238;2023-04-07T02:01:00;100186.29;;;7.23;75.31
56582;BME280;42463;52.214;21.238;2023-04-07T02:03:06;100187.79;;;7.27;75.39
56582;BME280;42463;52.214;21.238;2023-04-07T02:05:13;100186.42;;;7.24;75.21
56582;BME280;42463;52.214;21.238;2023-04-07T02:07:18;100184.08;;;7.20;75.23
56582;BME280;42463;52.214;21.238;2023-04-07T02:09:25;100182.05;;;7.19;75.48
56582;BME280;42463;52.214;21.238;2023-04-07T02:11:31;100181.76;;;7.18;75.71
56582;BME280;42463;52.214;21.238;2023-04-07T02:13:38;100179.86;;;7.20;75.91
56582;BME280;42463;52.214;21.238;2023-04-07T02:15:44;100180.75;;;7.24;76.20
56582;BME280;42463;52.214;21.238;2023-04-07T02:17:50;100183.06;;;7.28;76.17
56582;BME280;42463;52.214;21.238;2023-04-07T02:19:56;100176.91;;;7.27;75.93
56582;BME280;42463;52.214;21.238;2023-04-07T02:22:03;100187.44;;;7.30;75.65
56582;BME280;42463;52.214;21.238;2023-04-07T02:24:09;100182.14;;;7.29;75.98
56582;BME280;42463;52.214;21.238;2023-04-07T02:26:14;100182.52;;;7.29;75.88
56582;BME280;42463;52.214;21.238;2023-04-07T02:28:18;100183.23;;;7.30;75.95
56582;BME280;42463;52.214;21.238;2023-04-07T02:30:22;100181.59;;;7.34;76.35
56582;BME280;42463;52.214;21.238;2023-04-07T02:32:27;100179.41;;;7.39;76.18
56582;BME280;42463;52.214;21.238;2023-04-07T02:34:31;100183.08;;;7.41;75.98
56582;BME280;42463;52.214;21.238;2023-04-07T02:36:36;100182.05;;;7.42;75.83
56582;BME280;42463;52.214;21.238;2023-04-07T02:38:43;100182.69;;;7.43;75.83
56582;BME280;42463;52.214;21.238;2023-04-07T02:40:47;100182.25;;;7.46;75.90
56582;BME280;42463;52.214;21.238;2023-04-07T02:42:51;100182.73;;;7.45;75.74
56582;BME280;42463;52.214;21.238;2023-04-07T02:44:58;100182.59;;;7.44;75.69
56582;BME280;42463;52.214;21.238;2023-04-07T02:47:03;100185.60;;;7.41;75.67
56582;BME280;42463;52.214;21.238;2023-04-07T02:49:07;100181.54;;;7.40;76.12
56582;BME280;42463;52.214;21.238;2023-04-07T02:51:11;100180.59;;;7.44;76.39
56582;BME280;42463;52.214;21.238;2023-04-07T02:53:15;100181.10;;;7.48;76.22
56582;BME280;42463;52.214;21.238;2023-04-07T02:55:19;100179.54;;;7.51;76.11
56582;BME280;42463;52.214;21.238;2023-04-07T02:57:23;100181.77;;;7.56;76.35
56582;BME280;42463;52.214;21.238;2023-04-07T02:59:29;100185.33;;;7.62;76.08
56582;BME280;42463;52.214;21.238;2023-04-07T03:01:33;100181.54;;;7.61;75.92
56582;BME280;42463;52.214;21.238;2023-04-07T03:03:38;100188.15;;;7.65;75.63
56582;BME280;42463;52.214;21.238;2023-04-07T03:05:57;100187.55;;;7.68;75.73
56582;BME280;42463;52.214;21.238;2023-04-07T03:08:01;100188.36;;;7.71;75.76
56582;BME280;42463;52.214;21.238;2023-04-07T03:10:06;100185.70;;;7.73;75.51
56582;BME280;42463;52.214;21.238;2023-04-07T03:12:11;100182.39;;;7.75;75.51
56582;BME280;42463;52.214;21.238;2023-04-07T03:14:15;100188.23;;;7.75;75.23
56582;BME280;42463;52.214;21.238;2023-04-07T03:16:22;100184.96;;;7.74;75.24
56582;BME280;42463;52.214;21.238;2023-04-07T03:18:35;100190.59;;;7.75;75.41
56582;BME280;42463;52.214;21.238;2023-04-07T03:20:41;100193.86;;;7.74;75.06
56582;BME280;42463;52.214;21.238;2023-04-07T03:22:47;100196.42;;;7.72;75.16
56582;BME280;42463;52.214;21.238;2023-04-07T03:24:56;100191.99;;;7.72;75.28
56582;BME280;42463;52.214;21.238;2023-04-07T03:27:01;100193.74;;;7.70;75.26
56582;BME280;42463;52.214;21.238;2023-04-07T03:29:16;100193.31;;;7.70;75.51
56582;BME280;42463;52.214;21.238;2023-04-07T03:31:20;100195.42;;;7.73;75.65
56582;BME280;42463;52.214;21.238;2023-04-07T03:33:25;100196.38;;;7.75;75.63
56582;BME280;42463;52.214;21.238;2023-04-07T03:35:30;100196.38;;;7.75;75.60
56582;BME280;42463;52.214;21.238;2023-04-07T03:37:34;100194.67;;;7.77;75.70
56582;BME280;42463;52.214;21.238;2023-04-07T03:39:39;100193.99;;;7.78;75.55
56582;BME280;42463;52.214;21.238;2023-04-07T03:41:56;100196.20;;;7.77;75.63
56582;BME280;42463;52.214;21.238;2023-04-07T03:44:02;100195.61;;;7.78;75.60
56582;BME280;42463;52.214;21.238;2023-04-07T03:46:07;100189.60;;;7.77;75.54
56582;BME280;42463;52.214;21.238;2023-04-07T03:48:11;100185.16;;;7.79;75.83
56582;BME280;42463;52.214;21.238;2023-04-07T03:50:23;100187.38;;;7.80;75.59
56582;BME280;42463;52.214;21.238;2023-04-07T03:52:39;100187.84;;;7.78;75.53
56582;BME280;42463;52.214;21.238;2023-04-07T03:54:53;100187.17;;;7.80;76.07
56582;BME280;42463;52.214;21.238;2023-04-07T03:56:59;100185.67;;;7.80;75.94
56582;BME280;42463;52.214;21.238;2023-04-07T03:59:03;100187.46;;;7.84;75.75
56582;BME280;42463;52.214;21.238;2023-04-07T04:01:11;100182.30;;;7.82;75.74
56582;BME280;42463;52.214;21.238;2023-04-07T04:03:15;100186.07;;;7.84;76.19
56582;BME280;42463;52.214;21.238;2023-04-07T04:05:27;100184.54;;;7.89;76.11
56582;BME280;42463;52.214;21.238;2023-04-07T04:07:31;100189.66;;;7.91;75.73
56582;BME280;42463;52.214;21.238;2023-04-07T04:09:40;100191.58;;;7.87;75.69
56582;BME280;42463;52.214;21.238;2023-04-07T04:11:45;100193.25;;;7.87;75.92
56582;BME280;42463;52.214;21.238;2023-04-07T04:13:49;100195.83;;;7.86;75.82
56582;BME280;42463;52.214;21.238;2023-04-07T04:15:54;100197.53;;;7.88;75.86
56582;BME280;42463;52.214;21.238;2023-04-07T04:17:58;100198.11;;;7.90;75.96
56582;BME280;42463;52.214;21.238;2023-04-07T04:20:02;100202.60;;;7.90;75.95
56582;BME280;42463;52.214;21.238;2023-04-07T04:22:15;100201.24;;;7.93;76.08
56582;BME280;42463;52.214;21.238;2023-04-07T04:24:25;100201.84;;;7.96;76.06
56582;BME280;42463;52.214;21.238;2023-04-07T04:26:31;100200.98;;;7.99;76.18
56582;BME280;42463;52.214;21.238;2023-04-07T04:28:40;100207.06;;;8.04;76.15
56582;BME280;42463;52.214;21.238;2023-04-07T04:30:45;100206.86;;;8.04;75.70
56582;BME280;42463;52.214;21.238;2023-04-07T04:32:50;100208.26;;;8.01;75.51
56582;BME280;42463;52.214;21.238;2023-04-07T04:34:58;100205.34;;;7.98;75.61
56582;BME280;42463;52.214;21.238;2023-04-07T04:37:04;100204.75;;;7.96;75.77
56582;BME280;42463;52.214;21.238;2023-04-07T04:39:09;100202.74;;;7.95;75.83
56582;BME280;42463;52.214;21.238;2023-04-07T04:41:14;100204.67;;;7.94;76.03
56582;BME280;42463;52.214;21.238;2023-04-07T04:43:19;100211.48;;;7.94;76.16
56582;BME280;42463;52.214;21.238;2023-04-07T04:45:23;100209.06;;;7.95;76.16
56582;BME280;42463;52.214;21.238;2023-04-07T04:47:27;100212.27;;;7.93;76.09
56582;BME280;42463;52.214;21.238;2023-04-07T04:49:32;100212.70;;;7.90;76.15
56582;BME280;42463;52.214;21.238;2023-04-07T04:51:38;100217.02;;;7.90;76.49
56582;BME280;42463;52.214;21.238;2023-04-07T04:53:48;100216.08;;;7.91;76.51
56582;BME280;42463;52.214;21.238;2023-04-07T04:55:53;100215.72;;;7.92;76.43
56582;BME280;42463;52.214;21.238;2023-04-07T04:58:00;100215.09;;;7.91;76.26
56582;BME280;42463;52.214;21.238;2023-04-07T05:00:13;100217.60;;;7.92;76.84
56582;BME280;42463;52.214;21.238;2023-04-07T05:02:17;100215.30;;;7.93;76.62
56582;BME280;42463;52.214;21.238;2023-04-07T05:04:22;100215.20;;;7.93;76.66
56582;BME280;42463;52.214;21.238;2023-04-07T05:06:32;100217.19;;;7.96;77.05
56582;BME280;42463;52.214;21.238;2023-04-07T05:08:39;100211.98;;;7.95;76.93
56582;BME280;42463;52.214;21.238;2023-04-07T05:10:44;100216.68;;;7.98;76.97
56582;BME280;42463;52.214;21.238;2023-04-07T05:12:49;100216.63;;;7.98;76.81
56582;BME280;42463;52.214;21.238;2023-04-07T05:14:54;100214.85;;;7.98;76.60
56582;BME280;42463;52.214;21.238;2023-04-07T05:16:58;100216.68;;;7.95;76.72
56582;BME280;42463;52.214;21.238;2023-04-07T05:19:03;100216.22;;;7.96;77.04
56582;BME280;42463;52.214;21.238;2023-04-07T05:21:08;100214.71;;;8.00;77.36
56582;BME280;42463;52.214;21.238;2023-04-07T05:23:12;100216.29;;;8.06;77.36
56582;BME280;42463;52.214;21.238;2023-04-07T05:25:17;100219.18;;;8.11;77.13
56582;BME280;42463;52.214;21.238;2023-04-07T05:27:22;100217.91;;;8.13;76.87
56582;BME280;42463;52.214;21.238;2023-04-07T05:29:28;100215.27;;;8.16;77.16
56582;BME280;42463;52.214;21.238;2023-04-07T05:31:32;100215.14;;;8.20;77.14
56582;BME280;42463;52.214;21.238;2023-04-07T05:33:40;100215.04;;;8.24;76.90
56582;BME280;42463;52.214;21.238;2023-04-07T05:35:44;100217.43;;;8.25;76.80
56582;BME280;42463;52.214;21.238;2023-04-07T05:37:49;100218.77;;;8.24;76.79
56582;BME280;42463;52.214;21.238;2023-04-07T05:39:53;100219.58;;;8.24;76.58
56582;BME280;42463;52.214;21.238;2023-04-07T05:41:57;100221.33;;;8.25;76.90
56582;BME280;42463;52.214;21.238;2023-04-07T05:44:02;100223.96;;;8.24;76.68
56582;BME280;42463;52.214;21.238;2023-04-07T05:46:10;100220.33;;;8.23;76.95
56582;BME280;42463;52.214;21.238;2023-04-07T05:48:22;100220.16;;;8.23;76.86
56582;BME280;42463;52.214;21.238;2023-04-07T05:50:26;100217.89;;;8.18;76.94
56582;BME280;42463;52.214;21.238;2023-04-07T05:52:31;100222.92;;;8.21;77.00
56582;BME280;42463;52.214;21.238;2023-04-07T05:54:43;100216.91;;;8.22;77.32
56582;BME280;42463;52.214;21.238;2023-04-07T05:56:48;100223.85;;;8.27;77.33
56582;BME280;42463;52.214;21.238;2023-04-07T05:58:53;100224.23;;;8.30;77.19
56582;BME280;42463;52.214;21.238;2023-04-07T06:00:58;100224.39;;;8.32;77.08
56582;BME280;42463;52.214;21.238;2023-04-07T06:03:02;100219.08;;;8.35;77.13
56582;BME280;42463;52.214;21.238;2023-04-07T06:05:11;100217.90;;;8.39;77.07
56582;BME280;42463;52.214;21.238;2023-04-07T06:07:16;100218.03;;;8.41;76.92
56582;BME280;42463;52.214;21.238;2023-04-07T06:09:20;100219.89;;;8.41;76.99
56582;BME280;42463;52.214;21.238;2023-04-07T06:11:25;100216.38;;;8.39;76.65
56582;BME280;42463;52.214;21.238;2023-04-07T06:13:29;100214.70;;;8.39;77.08
56582;BME280;42463;52.214;21.238;2023-04-07T06:15:33;100216.82;;;8.39;76.88
56582;BME280;42463;52.214;21.238;2023-04-07T06:17:37;100212.45;;;8.36;76.84
56582;BME280;42463;52.214;21.238;2023-04-07T06:19:42;100216.69;;;8.35;76.83
56582;BME280;42463;52.214;21.238;2023-04-07T06:21:46;100219.64;;;8.36;77.25
56582;BME280;42463;52.214;21.238;2023-04-07T06:23:50;100214.85;;;8.42;77.68
56582;BME280;42463;52.214;21.238;2023-04-07T06:25:54;100213.63;;;8.49;77.54
56582;BME280;42463;52.214;21.238;2023-04-07T06:27:58;100216.20;;;8.54;77.60
56582;BME280;42463;52.214;21.238;2023-04-07T06:30:04;100210.96;;;8.57;77.41
56582;BME280;42463;52.214;21.238;2023-04-07T06:32:08;100212.45;;;8.63;77.47
56582;BME280;42463;52.214;21.238;2023-04-07T06:34:12;100213.58;;;8.69;77.56
56582;BME280;42463;52.214;21.238;2023-04-07T06:36:16;100213.48;;;8.73;77.58
56582;BME280;42463;52.214;21.238;2023-04-07T06:38:21;100218.55;;;8.76;77.46
56582;BME280;42463;52.214;21.238;2023-04-07T06:40:25;100220.38;;;8.76;77.10
56582;BME280;42463;52.214;21.238;2023-04-07T06:42:29;100213.22;;;8.75;76.97
56582;BME280;42463;52.214;21.238;2023-04-07T06:44:41;100218.05;;;8.76;77.44
56582;BME280;42463;52.214;21.238;2023-04-07T06:46:45;100213.19;;;8.80;77.55
56582;BME280;42463;52.214;21.238;2023-04-07T06:48:52;100214.84;;;8.81;77.45
56582;BME280;42463;52.214;21.238;2023-04-07T06:50:56;100212.20;;;8.85;77.55
56582;BME280;42463;52.214;21.238;2023-04-07T06:53:00;100207.91;;;8.88;77.50
56582;BME280;42463;52.214;21.238;2023-04-07T06:55:05;100209.36;;;8.91;77.37
56582;BME280;42463;52.214;21.238;2023-04-07T06:57:10;100208.90;;;8.93;77.60
56582;BME280;42463;52.214;21.238;2023-04-07T06:59:14;100210.88;;;8.98;77.51
56582;BME280;42463;52.214;21.238;2023-04-07T07:01:18;100212.16;;;9.02;77.41
56582;BME280;42463;52.214;21.238;2023-04-07T07:03:22;100204.36;;;9.05;77.38
56582;BME280;42463;52.214;21.238;2023-04-07T07:05:29;100205.06;;;9.08;77.37
56582;BME280;42463;52.214;21.238;2023-04-07T07:07:33;100203.95;;;9.11;77.34
56582;BME280;42463;52.214;21.238;2023-04-07T07:09:37;100207.09;;;9.15;77.34
56582;BME280;42463;52.214;21.238;2023-04-07T07:11:41;100215.02;;;9.16;77.15
56582;BME280;42463;52.214;21.238;2023-04-07T07:13:45;100214.16;;;9.18;77.25
56582;BME280;42463;52.214;21.238;2023-04-07T07:15:50;100214.11;;;9.21;77.65
56582;BME280;42463;52.214;21.238;2023-04-07T07:17:54;100213.90;;;9.26;77.64
56582;BME280;42463;52.214;21.238;2023-04-07T07:19:58;100213.98;;;9.28;77.37
56582;BME280;42463;52.214;21.238;2023-04-07T07:22:02;100216.13;;;9.30;77.36
56582;BME280;42463;52.214;21.238;2023-04-07T07:24:07;100219.20;;;9.34;77.51
56582;BME280;42463;52.214;21.238;2023-04-07T07:26:11;100224.29;;;9.40;77.70
56582;BME280;42463;52.214;21.238;2023-04-07T07:28:15;100221.30;;;9.44;77.38
56582;BME280;42463;52.214;21.238;2023-04-07T07:30:20;100229.25;;;9.47;77.28
56582;BME280;42463;52.214;21.238;2023-04-07T07:32:25;100224.02;;;9.49;77.20
56582;BME280;42463;52.214;21.238;2023-04-07T07:34:29;100226.82;;;9.51;77.03
56582;BME280;42463;52.214;21.238;2023-04-07T07:36:33;100226.05;;;9.51;76.98
56582;BME280;42463;52.214;21.238;2023-04-07T07:38:38;100229.14;;;9.51;76.99
56582;BME280;42463;52.214;21.238;2023-04-07T07:40:43;100227.16;;;9.53;77.03
56582;BME280;42463;52.214;21.238;2023-04-07T07:42:47;100226.13;;;9.57;76.98
56582;BME280;42463;52.214;21.238;2023-04-07T07:44:51;100223.81;;;9.62;77.19
56582;BME280;42463;52.214;21.238;2023-04-07T07:46:55;100226.70;;;9.69;77.18
56582;BME280;42463;52.214;21.238;2023-04-07T07:48:59;100226.73;;;9.75;76.93
56582;BME280;42463;52.214;21.238;2023-04-07T07:51:04;100228.80;;;9.81;76.87
56582;BME280;42463;52.214;21.238;2023-04-07T07:53:08;100229.91;;;9.84;76.66
56582;BME280;42463;52.214;21.238;2023-04-07T07:55:12;100228.10;;;9.86;76.95
56582;BME280;42463;52.214;21.238;2023-04-07T07:57:16;100234.96;;;9.90;76.87
56582;BME280;42463;52.214;21.238;2023-04-07T07:59:21;100233.46;;;9.92;76.99
56582;BME280;42463;52.214;21.238;2023-04-07T08:01:25;100238.61;;;9.96;76.74
56582;BME280;42463;52.214;21.238;2023-04-07T08:03:29;100236.38;;;9.96;76.81
56582;BME280;42463;52.214;21.238;2023-04-07T08:05:33;100231.64;;;9.99;76.86
56582;BME280;42463;52.214;21.238;2023-04-07T08:07:38;100233.77;;;10.01;76.71
56582;BME280;42463;52.214;21.238;2023-04-07T08:09:42;100233.82;;;10.00;76.63
56582;BME280;42463;52.214;21.238;2023-04-07T08:11:46;100235.17;;;9.99;76.70
56582;BME280;42463;52.214;21.238;2023-04-07T08:13:51;100231.95;;;10.02;76.69
56582;BME280;42463;52.214;21.238;2023-04-07T08:15:56;100232.83;;;10.09;76.97
56582;BME280;42463;52.214;21.238;2023-04-07T08:18:00;100234.09;;;10.15;76.82
56582;BME280;42463;52.214;21.238;2023-04-07T08:20:07;100234.30;;;10.19;76.52
56582;BME280;42463;52.214;21.238;2023-04-07T08:22:12;100240.02;;;10.24;76.49
56582;BME280;42463;52.214;21.238;2023-04-07T08:24:17;100237.42;;;10.27;76.30
56582;BME280;42463;52.214;21.238;2023-04-07T08:26:21;100231.59;;;10.27;76.10
56582;BME280;42463;52.214;21.238;2023-04-07T08:28:25;100233.52;;;10.28;76.13
56582;BME280;42463;52.214;21.238;2023-04-07T08:30:29;100232.98;;;10.32;76.36
56582;BME280;42463;52.214;21.238;2023-04-07T08:32:34;100229.65;;;10.36;76.31
56582;BME280;42463;52.214;21.238;2023-04-07T08:34:39;100232.83;;;10.38;76.27
56582;BME280;42463;52.214;21.238;2023-04-07T08:36:43;100235.64;;;10.42;76.28
56582;BME280;42463;52.214;21.238;2023-04-07T08:38:47;100232.54;;;10.46;76.30
56582;BME280;42463;52.214;21.238;2023-04-07T08:40:54;100239.23;;;10.49;76.23
56582;BME280;42463;52.214;21.238;2023-04-07T08:43:01;100238.91;;;10.55;76.23
56582;BME280;42463;52.214;21.238;2023-04-07T08:45:09;100238.30;;;10.60;76.06
56582;BME280;42463;52.214;21.238;2023-04-07T08:47:13;100235.23;;;10.62;75.85
56582;BME280;42463;52.214;21.238;2023-04-07T08:49:19;100238.23;;;10.59;75.54
56582;BME280;42463;52.214;21.238;2023-04-07T08:51:27;100237.36;;;10.59;75.89
56582;BME280;42463;52.214;21.238;2023-04-07T08:53:33;100235.91;;;10.60;75.65
56582;BME280;42463;52.214;21.238;2023-04-07T08:55:39;100239.28;;;10.61;75.81
56582;BME280;42463;52.214;21.238;2023-04-07T08:57:43;100236.17;;;10.65;76.01
56582;BME280;42463;52.214;21.238;2023-04-07T08:59:48;100240.86;;;10.68;75.81
56582;BME280;42463;52.214;21.238;2023-04-07T09:01:53;100240.27;;;10.68;75.58
56582;BME280;42463;52.214;21.238;2023-04-07T09:03:58;100241.73;;;10.68;75.71
56582;BME280;42463;52.214;21.238;2023-04-07T09:06:03;100246.23;;;10.69;75.93
56582;BME280;42463;52.214;21.238;2023-04-07T09:08:07;100243.92;;;10.71;75.73
56582;BME280;42463;52.214;21.238;2023-04-07T09:10:12;100242.52;;;10.72;75.68
56582;BME280;42463;52.214;21.238;2023-04-07T09:12:16;100241.23;;;10.74;75.87
56582;BME280;42463;52.214;21.238;2023-04-07T09:14:21;100241.73;;;10.74;75.73
56582;BME280;42463;52.214;21.238;2023-04-07T09:16:25;100240.88;;;10.76;75.61
56582;BME280;42463;52.214;21.238;2023-04-07T09:18:31;100239.04;;;10.77;75.70
56582;BME280;42463;52.214;21.238;2023-04-07T09:22:54;100235.89;;;10.77;75.70
56582;BME280;42463;52.214;21.238;2023-04-07T09:25:09;100233.40;;;10.79;75.96
56582;BME280;42463;52.214;21.238;2023-04-07T09:27:13;100232.26;;;10.84;75.99
56582;BME280;42463;52.214;21.238;2023-04-07T09:29:19;100228.31;;;10.88;75.70
56582;BME280;42463;52.214;21.238;2023-04-07T09:31:42;100226.11;;;10.92;75.81
56582;BME280;42463;52.214;21.238;2023-04-07T09:33:46;100227.09;;;10.93;75.78
56582;BME280;42463;52.214;21.238;2023-04-07T09:35:53;100226.23;;;10.95;75.85
56582;BME280;42463;52.214;21.238;2023-04-07T09:38:01;100225.02;;;10.98;75.81
56582;BME280;42463;52.214;21.238;2023-04-07T09:40:07;100231.40;;;11.05;76.05
56582;BME280;42463;52.214;21.238;2023-04-07T09:42:12;100230.27;;;11.12;76.09
56582;BME280;42463;52.214;21.238;2023-04-07T09:44:16;100231.70;;;11.17;75.84
56582;BME280;42463;52.214;21.238;2023-04-07T09:46:20;100230.80;;;11.20;75.73
56582;BME280;42463;52.214;21.238;2023-04-07T09:48:24;100229.77;;;11.23;75.82
56582;BME280;42463;52.214;21.238;2023-04-07T09:50:31;100232.30;;;11.26;75.57
56582;BME280;42463;52.214;21.238;2023-04-07T09:52:49;100230.80;;;11.31;75.90
56582;BME280;42463;52.214;21.238;2023-04-07T09:54:54;100233.05;;;11.36;75.98
56582;BME280;42463;52.214;21.238;2023-04-07T09:56:59;100235.13;;;11.40;75.82
56582;BME280;42463;52.214;21.238;2023-04-07T09:59:05;100234.08;;;11.44;75.71
56582;BME280;42463;52.214;21.238;2023-04-07T10:01:11;100234.81;;;11.46;75.89
56582;BME280;42463;52.214;21.238;2023-04-07T10:03:16;100237.27;;;11.50;75.79
56582;BME280;42463;52.214;21.238;2023-04-07T10:05:20;100238.92;;;11.52;75.83
56582;BME280;42463;52.214;21.238;2023-04-07T10:07:24;100239.63;;;11.54;75.78
56582;BME280;42463;52.214;21.238;2023-04-07T10:09:29;100240.83;;;11.55;75.92
56582;BME280;42463;52.214;21.238;2023-04-07T10:11:33;100239.87;;;11.58;75.97
56582;BME280;42463;52.214;21.238;2023-04-07T10:13:40;100244.13;;;11.61;76.15
56582;BME280;42463;52.214;21.238;2023-04-07T10:15:44;100242.33;;;11.63;75.96
56582;BME280;42463;52.214;21.238;2023-04-07T10:17:49;100245.10;;;11.62;76.02
56582;BME280;42463;52.214;21.238;2023-04-07T10:19:54;100245.05;;;11.64;76.06
56582;BME280;42463;52.214;21.238;2023-04-07T10:22:02;100247.52;;;11.69;76.23
56582;BME280;42463;52.214;21.238;2023-04-07T10:24:08;100237.02;;;11.69;76.31
56582;BME280;42463;52.214;21.238;2023-04-07T10:26:22;100247.27;;;11.81;76.29
56582;BME280;42463;52.214;21.238;2023-04-07T10:28:29;100250.16;;;11.84;76.08
56582;BME280;42463;52.214;21.238;2023-04-07T10:30:34;100245.72;;;11.89;76.04
56582;BME280;42463;52.214;21.238;2023-04-07T10:32:46;100245.41;;;11.93;75.84
56582;BME280;42463;52.214;21.238;2023-04-07T10:34:59;100243.07;;;11.93;75.80
56582;BME280;42463;52.214;21.238;2023-04-07T10:37:10;100247.71;;;12.01;75.79
56582;BME280;42463;52.214;21.238;2023-04-07T10:39:22;100247.61;;;12.05;75.48
56582;BME280;42463;52.214;21.238;2023-04-07T10:41:32;100249.47;;;12.08;75.45
56582;BME280;42463;52.214;21.238;2023-04-07T10:43:39;100251.60;;;12.11;75.39
56582;BME280;42463;52.214;21.238;2023-04-07T10:45:53;100254.33;;;12.14;75.22
56582;BME280;42463;52.214;21.238;2023-04-07T10:48:09;100252.48;;;12.16;75.20
56582;BME280;42463;52.214;21.238;2023-04-07T10:50:18;100247.70;;;12.20;74.98
56582;BME280;42463;52.214;21.238;2023-04-07T10:52:23;100253.75;;;12.24;74.98
56582;BME280;42463;52.214;21.238;2023-04-07T10:54:27;100255.17;;;12.26;74.79
56582;BME280;42463;52.214;21.238;2023-04-07T10:58:49;100254.31;;;12.34;74.90
56582;BME280;42463;52.214;21.238;2023-04-07T11:01:17;100258.66;;;12.35;74.71
56582;BME280;42463;52.214;21.238;2023-04-07T11:03:22;100257.95;;;12.37;74.50